Aviation Digital Data Service (ADDS)

Output produced by METARs form (1608 UTC 26 November 2014)
found at http://aviationweather.gov/adds/metars/
 
KARA 261553Z 20011KT 10SM CLR 17/09 A3027 RMK AO2 SLP249 T01720089